sensor_id;sensor_type;location;lat;lon;timestamp;pressure;altitude;pressure_sealevel;temperature;humidity
44675;BME280;30388;52.038;-1.478;2023-02-16T00:02:11;65343.05;;;6.43;100.00
44675;BME280;30388;52.038;-1.478;2023-02-16T00:04:38;65395.72;;;7.10;100.00
44675;BME280;30388;52.038;-1.478;2023-02-16T00:07:06;65395.85;;;7.10;100.00
44675;BME280;30388;52.038;-1.478;2023-02-16T00:09:33;65383.74;;;6.95;100.00
44675;BME280;30388;52.038;-1.478;2023-02-16T00:12:00;65348.39;;;6.49;100.00
44675;BME280;30388;52.038;-1.478;2023-02-16T00:14:27;65326.76;;;6.44;100.00
44675;BME280;30388;52.038;-1.478;2023-02-16T00:16:57;65357.29;;;6.83;100.00
44675;BME280;30388;52.038;-1.478;2023-02-16T00:19:26;65426.78;;;7.49;100.00
44675;BME280;30388;52.038;-1.478;2023-02-16T00:21:55;65443.67;;;7.22;100.00
44675;BME280;30388;52.038;-1.478;2023-02-16T00:24:24;65489.40;;;7.80;100.00
44675;BME280;30388;52.038;-1.478;2023-02-16T00:26:52;65433.22;;;7.30;100.00
44675;BME280;30388;52.038;-1.478;2023-02-16T00:29:23;65412.23;;;7.31;100.00
44675;BME280;30388;52.038;-1.478;2023-02-16T00:31:51;65419.80;;;7.40;100.00
44675;BME280;30388;52.038;-1.478;2023-02-16T00:34:30;65422.09;;;7.17;100.00
44675;BME280;30388;52.038;-1.478;2023-02-16T00:36:59;65393.96;;;7.07;100.00
44675;BME280;30388;52.038;-1.478;2023-02-16T00:39:27;65399.73;;;7.14;100.00
44675;BME280;30388;52.038;-1.478;2023-02-16T00:41:55;65431.78;;;7.56;100.00
44675;BME280;30388;52.038;-1.478;2023-02-16T00:44:30;65365.26;;;6.71;100.00
44675;BME280;30388;52.038;-1.478;2023-02-16T00:47:00;65414.66;;;7.34;100.00
44675;BME280;30388;52.038;-1.478;2023-02-16T00:49:28;65436.99;;;7.35;100.00
44675;BME280;30388;52.038;-1.478;2023-02-16T00:51:56;65454.54;;;7.36;100.00
44675;BME280;30388;52.038;-1.478;2023-02-16T00:54:23;65510.88;;;8.07;100.00
44675;BME280;30388;52.038;-1.478;2023-02-16T00:56:50;65565.98;;;8.55;100.00
44675;BME280;30388;52.038;-1.478;2023-02-16T00:59:19;65515.40;;;7.90;100.00
44675;BME280;30388;52.038;-1.478;2023-02-16T01:01:49;65412.48;;;6.82;100.00
44675;BME280;30388;52.038;-1.478;2023-02-16T01:04:20;65493.28;;;7.85;100.00
44675;BME280;30388;52.038;-1.478;2023-02-16T01:06:48;65511.55;;;8.08;100.00
44675;BME280;30388;52.038;-1.478;2023-02-16T01:09:17;65552.01;;;8.59;100.00
44675;BME280;30388;52.038;-1.478;2023-02-16T01:11:45;65519.74;;;8.18;100.00
44675;BME280;30388;52.038;-1.478;2023-02-16T01:14:12;65497.72;;;7.68;100.00
44675;BME280;30388;52.038;-1.478;2023-02-16T01:16:41;65445.20;;;7.46;100.00
44675;BME280;30388;52.038;-1.478;2023-02-16T01:19:09;65457.40;;;7.88;100.00
44675;BME280;30388;52.038;-1.478;2023-02-16T01:21:37;65462.04;;;7.68;100.00
44675;BME280;30388;52.038;-1.478;2023-02-16T01:24:04;65472.27;;;7.57;100.00
44675;BME280;30388;52.038;-1.478;2023-02-16T01:26:37;65462.09;;;7.94;100.00
44675;BME280;30388;52.038;-1.478;2023-02-16T01:29:05;65470.06;;;7.77;100.00
44675;BME280;30388;52.038;-1.478;2023-02-16T01:31:32;65433.75;;;7.32;100.00
44675;BME280;30388;52.038;-1.478;2023-02-16T01:33:59;65377.33;;;6.86;100.00
44675;BME280;30388;52.038;-1.478;2023-02-16T01:36:30;65287.20;;;6.21;100.00
44675;BME280;30388;52.038;-1.478;2023-02-16T01:39:00;65316.38;;;6.57;100.00
44675;BME280;30388;52.038;-1.478;2023-02-16T01:41:42;65319.22;;;6.61;100.00
44675;BME280;30388;52.038;-1.478;2023-02-16T01:44:14;65285.71;;;6.19;100.00
44675;BME280;30388;52.038;-1.478;2023-02-16T01:46:47;65312.99;;;6.53;100.00
44675;BME280;30388;52.038;-1.478;2023-02-16T01:49:17;65302.58;;;6.40;100.00
44675;BME280;30388;52.038;-1.478;2023-02-16T01:51:51;65304.89;;;6.17;100.00
44675;BME280;30388;52.038;-1.478;2023-02-16T01:54:31;65326.54;;;6.23;100.00
44675;BME280;30388;52.038;-1.478;2023-02-16T01:57:05;65319.75;;;6.62;100.00
44675;BME280;30388;52.038;-1.478;2023-02-16T01:59:59;65368.79;;;6.97;100.00
44675;BME280;30388;52.038;-1.478;2023-02-16T02:02:35;65333.88;;;6.31;100.00
44675;BME280;30388;52.038;-1.478;2023-02-16T02:05:14;65377.44;;;6.86;100.00
44675;BME280;30388;52.038;-1.478;2023-02-16T02:07:51;65375.77;;;6.84;100.00
44675;BME280;30388;52.038;-1.478;2023-02-16T02:10:24;65401.76;;;7.17;100.00
44675;BME280;30388;52.038;-1.478;2023-02-16T02:13:01;65345.60;;;6.46;100.00
44675;BME280;30388;52.038;-1.478;2023-02-16T02:15:33;65390.14;;;7.03;100.00
44675;BME280;30388;52.038;-1.478;2023-02-16T02:18:00;65442.61;;;7.69;100.00
44675;BME280;30388;52.038;-1.478;2023-02-16T02:20:43;65445.96;;;7.47;100.00
44675;BME280;30388;52.038;-1.478;2023-02-16T02:23:28;65447.68;;;7.50;100.00
44675;BME280;30388;52.038;-1.478;2023-02-16T02:26:45;65407.18;;;6.98;100.00
44675;BME280;30388;52.038;-1.478;2023-02-16T02:29:33;65413.17;;;7.32;100.00
44675;BME280;30388;52.038;-1.478;2023-02-16T02:32:12;65417.12;;;7.10;100.00
44675;BME280;30388;52.038;-1.478;2023-02-16T02:35:00;65392.98;;;6.79;100.00
44675;BME280;30388;52.038;-1.478;2023-02-16T02:37:41;65450.05;;;7.30;100.00
44675;BME280;30388;52.038;-1.478;2023-02-16T02:40:17;65472.44;;;7.81;100.00
44675;BME280;30388;52.038;-1.478;2023-02-16T02:42:55;65469.82;;;7.76;100.00
44675;BME280;30388;52.038;-1.478;2023-02-16T02:45:30;65461.57;;;7.44;100.00
44675;BME280;30388;52.038;-1.478;2023-02-16T02:47:58;65417.28;;;7.38;100.00
44675;BME280;30388;52.038;-1.478;2023-02-16T02:50:40;65388.40;;;7.00;100.00
44675;BME280;30388;52.038;-1.478;2023-02-16T02:53:12;65396.55;;;6.84;100.00
44675;BME280;30388;52.038;-1.478;2023-02-16T02:55:45;65415.45;;;7.08;100.00
44675;BME280;30388;52.038;-1.478;2023-02-16T02:58:16;65438.50;;;7.14;100.00
44675;BME280;30388;52.038;-1.478;2023-02-16T03:00:52;65436.02;;;7.35;100.00
44675;BME280;30388;52.038;-1.478;2023-02-16T03:03:24;65424.66;;;7.21;100.00
44675;BME280;30388;52.038;-1.478;2023-02-16T03:05:53;65428.86;;;7.26;100.00
44675;BME280;30388;52.038;-1.478;2023-02-16T03:08:26;65410.70;;;7.02;100.00
44675;BME280;30388;52.038;-1.478;2023-02-16T03:10:57;65389.15;;;6.75;100.00
44675;BME280;30388;52.038;-1.478;2023-02-16T03:13:29;65378.86;;;6.89;100.00
44675;BME280;30388;52.038;-1.478;2023-02-16T03:15:58;65430.99;;;7.54;100.00
44675;BME280;30388;52.038;-1.478;2023-02-16T03:18:30;65410.54;;;7.03;100.00
44675;BME280;30388;52.038;-1.478;2023-02-16T03:21:02;65392.86;;;7.07;100.00
44675;BME280;30388;52.038;-1.478;2023-02-16T03:23:30;65447.59;;;7.75;100.00
44675;BME280;30388;52.038;-1.478;2023-02-16T03:25:59;65401.24;;;7.17;100.00
44675;BME280;30388;52.038;-1.478;2023-02-16T03:28:29;65390.96;;;7.04;100.00
44675;BME280;30388;52.038;-1.478;2023-02-16T03:30:58;65420.03;;;7.41;100.00
44675;BME280;30388;52.038;-1.478;2023-02-16T03:33:27;65453.80;;;7.58;100.00
44675;BME280;30388;52.038;-1.478;2023-02-16T03:35:55;65430.32;;;7.54;100.00
44675;BME280;30388;52.038;-1.478;2023-02-16T03:38:23;65454.33;;;7.58;100.00
44675;BME280;30388;52.038;-1.478;2023-02-16T03:40:51;65494.27;;;8.08;100.00
44675;BME280;30388;52.038;-1.478;2023-02-16T03:43:18;65499.86;;;7.93;100.00
44675;BME280;30388;52.038;-1.478;2023-02-16T03:45:50;65448.04;;;7.27;100.00
44675;BME280;30388;52.038;-1.478;2023-02-16T03:48:17;65475.77;;;7.62;100.00
44675;BME280;30388;52.038;-1.478;2023-02-16T03:50:45;65426.13;;;7.00;100.00
44675;BME280;30388;52.038;-1.478;2023-02-16T03:53:12;65375.38;;;6.84;100.00
44675;BME280;30388;52.038;-1.478;2023-02-16T03:55:41;65448.70;;;7.51;100.00
44675;BME280;30388;52.038;-1.478;2023-02-16T03:58:10;65400.28;;;7.16;100.00
44675;BME280;30388;52.038;-1.478;2023-02-16T04:00:38;65391.30;;;7.05;100.00
44675;BME280;30388;52.038;-1.478;2023-02-16T04:03:06;65348.46;;;6.72;100.00
44675;BME280;30388;52.038;-1.478;2023-02-16T04:05:33;65417.32;;;7.36;100.00
44675;BME280;30388;52.038;-1.478;2023-02-16T04:08:00;65457.01;;;7.61;100.00
44675;BME280;30388;52.038;-1.478;2023-02-16T04:10:28;65459.59;;;7.42;100.00
44675;BME280;30388;52.038;-1.478;2023-02-16T04:12:55;65380.33;;;6.90;100.00
44675;BME280;30388;52.038;-1.478;2023-02-16T04:15:24;65393.34;;;7.06;100.00
44675;BME280;30388;52.038;-1.478;2023-02-16T04:17:51;65333.54;;;6.53;100.00
44675;BME280;30388;52.038;-1.478;2023-02-16T04:20:21;65346.32;;;6.47;100.00
44675;BME280;30388;52.038;-1.478;2023-02-16T04:22:50;65373.58;;;6.82;100.00
44675;BME280;30388;52.038;-1.478;2023-02-16T04:25:18;65381.97;;;6.65;100.00
44675;BME280;30388;52.038;-1.478;2023-02-16T04:27:46;65324.12;;;6.19;100.00
44675;BME280;30388;52.038;-1.478;2023-02-16T04:30:16;65317.40;;;6.60;100.00
44675;BME280;30388;52.038;-1.478;2023-02-16T04:30:19;65295.88;;;6.06;100.00
44675;BME280;30388;52.038;-1.478;2023-02-16T04:32:47;65347.14;;;6.98;100.00
44675;BME280;30388;52.038;-1.478;2023-02-16T04:35:15;65307.85;;;5.98;100.00
44675;BME280;30388;52.038;-1.478;2023-02-16T04:37:42;65373.47;;;6.82;100.00
44675;BME280;30388;52.038;-1.478;2023-02-16T04:40:11;65312.56;;;6.54;100.00
44675;BME280;30388;52.038;-1.478;2023-02-16T04:42:39;65320.08;;;6.62;100.00
44675;BME280;30388;52.038;-1.478;2023-02-16T04:45:07;65377.98;;;6.88;100.00
44675;BME280;30388;52.038;-1.478;2023-02-16T04:47:34;65382.04;;;6.93;100.00
44675;BME280;30388;52.038;-1.478;2023-02-16T04:50:01;65417.21;;;7.11;100.00
44675;BME280;30388;52.038;-1.478;2023-02-16T04:52:28;65439.97;;;7.40;100.00
44675;BME280;30388;52.038;-1.478;2023-02-16T04:54:56;65395.97;;;6.84;100.00
44675;BME280;30388;52.038;-1.478;2023-02-16T04:57:24;65416.88;;;7.10;100.00
44675;BME280;30388;52.038;-1.478;2023-02-16T04:59:51;65451.63;;;7.81;100.00
44675;BME280;30388;52.038;-1.478;2023-02-16T05:02:18;65449.71;;;7.79;100.00
44675;BME280;30388;52.038;-1.478;2023-02-16T05:04:46;65436.57;;;7.62;100.00
44675;BME280;30388;52.038;-1.478;2023-02-16T05:07:13;65386.82;;;6.98;100.00
44675;BME280;30388;52.038;-1.478;2023-02-16T05:09:40;65396.41;;;7.11;100.00
44675;BME280;30388;52.038;-1.478;2023-02-16T05:12:08;65405.91;;;7.44;100.00
44675;BME280;30388;52.038;-1.478;2023-02-16T05:14:36;65343.47;;;6.66;100.00
44675;BME280;30388;52.038;-1.478;2023-02-16T05:17:03;65369.79;;;6.78;100.00
44675;BME280;30388;52.038;-1.478;2023-02-16T05:19:30;65405.78;;;7.23;100.00
44675;BME280;30388;52.038;-1.478;2023-02-16T05:21:58;65408.74;;;7.27;100.00
44675;BME280;30388;52.038;-1.478;2023-02-16T05:24:25;65405.29;;;7.23;100.00
44675;BME280;30388;52.038;-1.478;2023-02-16T05:26:52;65384.75;;;7.18;100.00
44675;BME280;30388;52.038;-1.478;2023-02-16T05:29:20;65345.10;;;6.95;100.00
44675;BME280;30388;52.038;-1.478;2023-02-16T05:31:47;65416.54;;;7.09;100.00
44675;BME280;30388;52.038;-1.478;2023-02-16T05:34:14;65354.33;;;7.06;100.00
44675;BME280;30388;52.038;-1.478;2023-02-16T05:36:41;65441.64;;;7.41;100.00
44675;BME280;30388;52.038;-1.478;2023-02-16T05:39:09;65389.09;;;7.03;100.00
44675;BME280;30388;52.038;-1.478;2023-02-16T05:41:36;65397.93;;;7.13;100.00
44675;BME280;30388;52.038;-1.478;2023-02-16T05:44:04;65357.59;;;6.85;100.00
44675;BME280;30388;52.038;-1.478;2023-02-16T05:46:34;65396.68;;;7.11;100.00
44675;BME280;30388;52.038;-1.478;2023-02-16T05:49:02;65394.66;;;6.82;100.00
44675;BME280;30388;52.038;-1.478;2023-02-16T05:51:30;65355.94;;;7.09;100.00
44675;BME280;30388;52.038;-1.478;2023-02-16T05:53:58;65319.54;;;6.63;100.00
44675;BME280;30388;52.038;-1.478;2023-02-16T05:56:25;65346.50;;;6.70;100.00
44675;BME280;30388;52.038;-1.478;2023-02-16T05:58:53;65394.91;;;7.09;100.00
44675;BME280;30388;52.038;-1.478;2023-02-16T06:01:20;65365.68;;;6.94;100.00
44675;BME280;30388;52.038;-1.478;2023-02-16T06:03:48;65382.09;;;6.93;100.00
44675;BME280;30388;52.038;-1.478;2023-02-16T06:06:15;65387.80;;;7.49;100.00
44675;BME280;30388;52.038;-1.478;2023-02-16T06:08:43;65420.78;;;7.42;100.00
44675;BME280;30388;52.038;-1.478;2023-02-16T06:11:11;65420.20;;;7.42;100.00
44675;BME280;30388;52.038;-1.478;2023-02-16T06:13:38;65344.31;;;6.67;100.00
44675;BME280;30388;52.038;-1.478;2023-02-16T06:16:06;65393.73;;;7.08;100.00
44675;BME280;30388;52.038;-1.478;2023-02-16T06:18:33;65368.22;;;6.49;100.00
44675;BME280;30388;52.038;-1.478;2023-02-16T06:21:00;65341.26;;;6.64;100.00
44675;BME280;30388;52.038;-1.478;2023-02-16T06:23:27;65387.22;;;7.00;100.00
44675;BME280;30388;52.038;-1.478;2023-02-16T06:25:54;65344.80;;;6.94;100.00
44675;BME280;30388;52.038;-1.478;2023-02-16T06:28:22;65370.11;;;6.79;100.00
44675;BME280;30388;52.038;-1.478;2023-02-16T06:30:49;65329.73;;;6.49;100.00
44675;BME280;30388;52.038;-1.478;2023-02-16T06:33:16;65340.25;;;6.40;100.00
44675;BME280;30388;52.038;-1.478;2023-02-16T06:35:44;65386.60;;;6.99;100.00
44675;BME280;30388;52.038;-1.478;2023-02-16T06:38:11;65378.60;;;6.89;100.00
44675;BME280;30388;52.038;-1.478;2023-02-16T06:40:38;65346.97;;;6.49;100.00
44675;BME280;30388;52.038;-1.478;2023-02-16T06:43:05;65371.96;;;6.80;100.00
44675;BME280;30388;52.038;-1.478;2023-02-16T06:45:33;65382.68;;;7.16;100.00
44675;BME280;30388;52.038;-1.478;2023-02-16T06:48:00;65409.73;;;7.28;100.00
44675;BME280;30388;52.038;-1.478;2023-02-16T06:50:27;65381.32;;;6.92;100.00
44675;BME280;30388;52.038;-1.478;2023-02-16T06:52:54;65389.38;;;7.25;100.00
44675;BME280;30388;52.038;-1.478;2023-02-16T06:55:23;65350.39;;;7.02;100.00
44675;BME280;30388;52.038;-1.478;2023-02-16T06:57:50;65352.19;;;6.55;100.00
44675;BME280;30388;52.038;-1.478;2023-02-16T07:00:18;65392.96;;;7.07;100.00
44675;BME280;30388;52.038;-1.478;2023-02-16T07:02:45;65361.58;;;6.68;100.00
44675;BME280;30388;52.038;-1.478;2023-02-16T07:05:12;65407.43;;;7.26;100.00
44675;BME280;30388;52.038;-1.478;2023-02-16T07:07:40;65379.14;;;6.90;100.00
44675;BME280;30388;52.038;-1.478;2023-02-16T07:10:07;65397.82;;;6.87;100.00
44675;BME280;30388;52.038;-1.478;2023-02-16T07:12:35;65447.04;;;7.50;100.00
44675;BME280;30388;52.038;-1.478;2023-02-16T07:15:03;65435.78;;;7.62;100.00
44675;BME280;30388;52.038;-1.478;2023-02-16T07:17:30;65431.69;;;7.29;100.00
44675;BME280;30388;52.038;-1.478;2023-02-16T07:19:58;65422.67;;;7.18;100.00
44675;BME280;30388;52.038;-1.478;2023-02-16T07:22:25;65456.19;;;7.39;100.00
44675;BME280;30388;52.038;-1.478;2023-02-16T07:24:52;65408.47;;;7.00;100.00
44675;BME280;30388;52.038;-1.478;2023-02-16T07:27:19;65486.17;;;7.77;100.00
44675;BME280;30388;52.038;-1.478;2023-02-16T07:29:47;65490.74;;;7.82;100.00
44675;BME280;30388;52.038;-1.478;2023-02-16T07:32:14;65479.99;;;7.91;100.00
44675;BME280;30388;52.038;-1.478;2023-02-16T07:34:41;65500.74;;;7.95;100.00
44675;BME280;30388;52.038;-1.478;2023-02-16T07:37:08;65510.34;;;8.07;100.00
44675;BME280;30388;52.038;-1.478;2023-02-16T07:39:35;65497.95;;;7.91;100.00
44675;BME280;30388;52.038;-1.478;2023-02-16T07:42:03;65390.35;;;6.55;100.00
44675;BME280;30388;52.038;-1.478;2023-02-16T07:44:30;65502.12;;;7.97;100.00
44675;BME280;30388;52.038;-1.478;2023-02-16T07:46:57;65501.24;;;7.95;100.00
44675;BME280;30388;52.038;-1.478;2023-02-16T07:49:24;65459.23;;;7.64;100.00
44675;BME280;30388;52.038;-1.478;2023-02-16T07:51:51;65526.29;;;8.27;100.00
44675;BME280;30388;52.038;-1.478;2023-02-16T07:54:19;65500.74;;;8.17;100.00
44675;BME280;30388;52.038;-1.478;2023-02-16T07:56:46;65483.19;;;7.73;100.00
44675;BME280;30388;52.038;-1.478;2023-02-16T07:59:14;65537.42;;;8.42;100.00
44675;BME280;30388;52.038;-1.478;2023-02-16T08:01:42;65520.08;;;8.41;100.00
44675;BME280;30388;52.038;-1.478;2023-02-16T08:04:09;65556.90;;;8.17;100.00
44675;BME280;30388;52.038;-1.478;2023-02-16T08:06:36;65535.64;;;8.40;100.00
44675;BME280;30388;52.038;-1.478;2023-02-16T08:09:03;65519.08;;;8.40;100.00
44675;BME280;30388;52.038;-1.478;2023-02-16T08:11:30;65490.51;;;8.31;100.00
44675;BME280;30388;52.038;-1.478;2023-02-16T08:13:58;65478.48;;;7.89;100.00
44675;BME280;30388;52.038;-1.478;2023-02-16T08:16:27;65510.34;;;8.29;100.00
44675;BME280;30388;52.038;-1.478;2023-02-16T08:18:55;65495.81;;;8.11;100.00
44675;BME280;30388;52.038;-1.478;2023-02-16T08:21:27;65460.26;;;7.93;100.00
44675;BME280;30388;52.038;-1.478;2023-02-16T08:23:56;65425.99;;;7.49;100.00
44675;BME280;30388;52.038;-1.478;2023-02-16T08:26:25;65458.82;;;7.90;100.00
44675;BME280;30388;52.038;-1.478;2023-02-16T08:28:53;65485.35;;;8.24;100.00
44675;BME280;30388;52.038;-1.478;2023-02-16T08:31:22;65505.31;;;8.22;100.00
44675;BME280;30388;52.038;-1.478;2023-02-16T08:33:51;65486.52;;;8.26;100.00
44675;BME280;30388;52.038;-1.478;2023-02-16T08:36:21;65481.10;;;8.19;100.00
44675;BME280;30388;52.038;-1.478;2023-02-16T08:38:50;65466.56;;;8.00;100.00
44675;BME280;30388;52.038;-1.478;2023-02-16T08:41:18;65442.84;;;7.71;100.00
44675;BME280;30388;52.038;-1.478;2023-02-16T08:43:45;65427.50;;;7.73;100.00
44675;BME280;30388;52.038;-1.478;2023-02-16T08:46:13;65462.09;;;7.69;100.00
44675;BME280;30388;52.038;-1.478;2023-02-16T08:48:40;65495.96;;;8.37;100.00
44675;BME280;30388;52.038;-1.478;2023-02-16T08:51:12;65507.62;;;8.26;100.00
44675;BME280;30388;52.038;-1.478;2023-02-16T08:53:40;65479.18;;;8.17;100.00
44675;BME280;30388;52.038;-1.478;2023-02-16T08:56:07;65484.97;;;7.97;100.00
44675;BME280;30388;52.038;-1.478;2023-02-16T08:58:34;65468.07;;;8.02;100.00
44675;BME280;30388;52.038;-1.478;2023-02-16T09:01:03;65501.76;;;8.19;100.00
44675;BME280;30388;52.038;-1.478;2023-02-16T09:03:30;65538.73;;;8.43;100.00
44675;BME280;30388;52.038;-1.478;2023-02-16T09:06:00;65495.72;;;8.11;100.00
44675;BME280;30388;52.038;-1.478;2023-02-16T09:08:28;65553.08;;;8.62;100.00
44675;BME280;30388;52.038;-1.478;2023-02-16T09:11:00;65601.57;;;9.23;100.00
44675;BME280;30388;52.038;-1.478;2023-02-16T09:13:28;65541.18;;;8.47;100.00
44675;BME280;30388;52.038;-1.478;2023-02-16T09:16:02;65545.82;;;8.52;100.00
44675;BME280;30388;52.038;-1.478;2023-02-16T09:18:29;65585.82;;;9.03;100.00
44675;BME280;30388;52.038;-1.478;2023-02-16T09:20:56;65561.00;;;8.49;100.00
44675;BME280;30388;52.038;-1.478;2023-02-16T09:23:23;65562.60;;;8.51;100.00
44675;BME280;30388;52.038;-1.478;2023-02-16T09:25:51;65531.10;;;8.34;100.00
44675;BME280;30388;52.038;-1.478;2023-02-16T09:28:18;65599.21;;;9.20;100.00
44675;BME280;30388;52.038;-1.478;2023-02-16T09:30:45;65563.69;;;8.75;100.00
44675;BME280;30388;52.038;-1.478;2023-02-16T09:33:12;65546.00;;;8.52;100.00
44675;BME280;30388;52.038;-1.478;2023-02-16T09:35:39;65567.19;;;8.79;100.00
44675;BME280;30388;52.038;-1.478;2023-02-16T09:38:06;65623.04;;;9.28;100.00
44675;BME280;30388;52.038;-1.478;2023-02-16T09:40:33;65627.81;;;9.07;100.00
44675;BME280;30388;52.038;-1.478;2023-02-16T09:43:07;65644.53;;;9.55;100.00
44675;BME280;30388;52.038;-1.478;2023-02-16T09:45:42;65589.15;;;8.58;100.00
44675;BME280;30388;52.038;-1.478;2023-02-16T09:48:19;65650.55;;;9.35;100.00
44675;BME280;30388;52.038;-1.478;2023-02-16T09:50:49;65655.82;;;9.20;100.00
44675;BME280;30388;52.038;-1.478;2023-02-16T09:53:23;65721.08;;;9.81;100.00
44675;BME280;30388;52.038;-1.478;2023-02-16T09:55:58;65718.85;;;10.00;100.00
44675;BME280;30388;52.038;-1.478;2023-02-16T09:58:36;65660.68;;;9.49;100.00
44675;BME280;30388;52.038;-1.478;2023-02-16T10:01:12;65682.85;;;10.03;100.00
44675;BME280;30388;52.038;-1.478;2023-02-16T10:03:52;65703.59;;;10.03;100.00
44675;BME280;30388;52.038;-1.478;2023-02-16T10:06:27;65749.73;;;10.61;100.00
44675;BME280;30388;52.038;-1.478;2023-02-16T10:08:57;65737.22;;;10.01;100.00
44675;BME280;30388;52.038;-1.478;2023-02-16T10:11:28;65707.14;;;10.07;100.00
44675;BME280;30388;52.038;-1.478;2023-02-16T10:14:00;65763.69;;;10.34;100.00
44675;BME280;30388;52.038;-1.478;2023-02-16T10:16:32;65760.57;;;10.31;100.00
44675;BME280;30388;52.038;-1.478;2023-02-16T10:19:13;65780.88;;;10.56;100.00
44675;BME280;30388;52.038;-1.478;2023-02-16T10:21:45;65811.18;;;10.95;100.00
44675;BME280;30388;52.038;-1.478;2023-02-16T10:24:13;65803.20;;;10.58;100.00
44675;BME280;30388;52.038;-1.478;2023-02-16T10:26:44;65742.48;;;10.08;100.00
44675;BME280;30388;52.038;-1.478;2023-02-16T10:29:15;65794.90;;;10.74;100.00
44675;BME280;30388;52.038;-1.478;2023-02-16T10:31:47;65770.59;;;10.43;100.00
44675;BME280;30388;52.038;-1.478;2023-02-16T10:34:20;65859.38;;;11.07;100.00
44675;BME280;30388;52.038;-1.478;2023-02-16T10:37:01;65755.89;;;10.25;100.00
44675;BME280;30388;52.038;-1.478;2023-02-16T10:39:37;65752.95;;;10.20;100.00
44675;BME280;30388;52.038;-1.478;2023-02-16T10:42:16;65744.94;;;10.55;100.00
44675;BME280;30388;52.038;-1.478;2023-02-16T10:44:49;65790.62;;;10.68;100.00
44675;BME280;30388;52.038;-1.478;2023-02-16T10:47:30;65847.28;;;11.41;100.00
44675;BME280;30388;52.038;-1.478;2023-02-16T10:49:58;65782.09;;;10.31;100.00
44675;BME280;30388;52.038;-1.478;2023-02-16T10:52:31;65786.64;;;10.63;100.00
44675;BME280;30388;52.038;-1.478;2023-02-16T10:55:00;65838.52;;;10.80;100.00
44675;BME280;30388;52.038;-1.478;2023-02-16T10:57:29;65912.02;;;11.73;100.00
44675;BME280;30388;52.038;-1.478;2023-02-16T10:59:58;65884.57;;;11.37;100.00
44675;BME280;30388;52.038;-1.478;2023-02-16T11:02:31;65879.87;;;11.55;100.00
44675;BME280;30388;52.038;-1.478;2023-02-16T11:05:02;65829.81;;;10.69;100.00
44675;BME280;30388;52.038;-1.478;2023-02-16T11:07:55;65841.95;;;10.84;100.00
44675;BME280;30388;52.038;-1.478;2023-02-16T11:10:35;65843.75;;;10.86;100.00
44675;BME280;30388;52.038;-1.478;2023-02-16T11:13:04;65889.78;;;11.44;100.00
44675;BME280;30388;52.038;-1.478;2023-02-16T11:15:32;65870.06;;;11.20;100.00
44675;BME280;30388;52.038;-1.478;2023-02-16T11:18:02;65866.22;;;11.38;100.00
44675;BME280;30388;52.038;-1.478;2023-02-16T11:20:32;65928.79;;;11.67;100.00
44675;BME280;30388;52.038;-1.478;2023-02-16T11:23:21;65919.42;;;11.55;100.00
44675;BME280;30388;52.038;-1.478;2023-02-16T11:25:54;65887.31;;;11.41;100.00
44675;BME280;30388;52.038;-1.478;2023-02-16T11:28:27;65888.37;;;11.65;100.00
44675;BME280;30388;52.038;-1.478;2023-02-16T11:31:01;65904.06;;;11.63;100.00
44675;BME280;30388;52.038;-1.478;2023-02-16T11:33:30;65934.27;;;12.01;100.00
44675;BME280;30388;52.038;-1.478;2023-02-16T11:35:58;65946.06;;;11.89;100.00
44675;BME280;30388;52.038;-1.478;2023-02-16T11:38:28;65955.17;;;12.01;100.00
44675;BME280;30388;52.038;-1.478;2023-02-16T11:40:56;65892.25;;;11.21;100.00
44675;BME280;30388;52.038;-1.478;2023-02-16T11:43:27;65972.03;;;12.22;100.00
44675;BME280;30388;52.038;-1.478;2023-02-16T11:45:58;66010.79;;;12.48;100.00
44675;BME280;30388;52.038;-1.478;2023-02-16T11:48:28;66003.58;;;12.39;100.00
44675;BME280;30388;52.038;-1.478;2023-02-16T11:50:57;65955.90;;;11.79;100.00
44675;BME280;30388;52.038;-1.478;2023-02-16T11:53:28;66009.17;;;12.46;100.00
44675;BME280;30388;52.038;-1.478;2023-02-16T11:56:11;65956.18;;;12.02;100.00
44675;BME280;30388;52.038;-1.478;2023-02-16T11:58:39;65919.06;;;11.82;100.00
44675;BME280;30388;52.038;-1.478;2023-02-16T12:01:17;65976.44;;;12.27;100.00
44675;BME280;30388;52.038;-1.478;2023-02-16T12:04:06;65969.06;;;11.96;100.00
44675;BME280;30388;52.038;-1.478;2023-02-16T12:06:50;65997.40;;;12.54;100.00
44675;BME280;30388;52.038;-1.478;2023-02-16T12:09:28;66010.08;;;12.48;100.00
44675;BME280;30388;52.038;-1.478;2023-02-16T12:12:05;65896.06;;;11.53;100.00
44675;BME280;30388;52.038;-1.478;2023-02-16T12:14:45;65867.12;;;11.16;100.00
44675;BME280;30388;52.038;-1.478;2023-02-16T12:17:27;65916.81;;;11.79;100.00
44675;BME280;30388;52.038;-1.478;2023-02-16T12:20:05;65949.79;;;11.94;100.00
44675;BME280;30388;52.038;-1.478;2023-02-16T12:22:46;65957.30;;;12.04;100.00
44675;BME280;30388;52.038;-1.478;2023-02-16T12:25:24;65956.66;;;12.02;100.00
44675;BME280;30388;52.038;-1.478;2023-02-16T12:27:59;65916.86;;;11.53;100.00
44675;BME280;30388;52.038;-1.478;2023-02-16T12:30:43;65854.08;;;11.49;100.00
44675;BME280;30388;52.038;-1.478;2023-02-16T12:33:24;65827.23;;;10.66;100.00
44675;BME280;30388;52.038;-1.478;2023-02-16T12:36:03;65869.01;;;11.68;100.00
44675;BME280;30388;52.038;-1.478;2023-02-16T12:38:46;65836.72;;;11.27;100.00
44675;BME280;30388;52.038;-1.478;2023-02-16T12:41:25;65858.64;;;11.28;100.00
44675;BME280;30388;52.038;-1.478;2023-02-16T12:44:01;65856.25;;;11.03;100.00
44675;BME280;30388;52.038;-1.478;2023-02-16T12:46:34;65935.70;;;11.77;100.00
44675;BME280;30388;52.038;-1.478;2023-02-16T12:49:10;65954.05;;;12.27;100.00
44675;BME280;30388;52.038;-1.478;2023-02-16T12:51:42;66006.58;;;12.43;100.00
44675;BME280;30388;52.038;-1.478;2023-02-16T12:54:18;65964.22;;;12.12;100.00
44675;BME280;30388;52.038;-1.478;2023-02-16T12:56:53;65998.65;;;12.33;100.00
44675;BME280;30388;52.038;-1.478;2023-02-16T12:59:29;65986.14;;;12.40;100.00
44675;BME280;30388;52.038;-1.478;2023-02-16T13:01:59;65990.32;;;12.23;100.00
44675;BME280;30388;52.038;-1.478;2023-02-16T13:04:36;65968.71;;;11.96;100.00